Time;durP1;ratioP1;P1;durP2;ratioP2;P2;SDS_P1;SDS_P2;PMS_P1;PMS_P2;Temp;Humidity;BMP_temperature;BMP_pressure;BME280_temperature;BME280_humidity;BME280_pressure;Samples;Min_cycle;Max_cycle;Signal;HPM_P1;HPM_P2
2021/12/07 00:00:45;;;;;;;3.23;2.80;;;;;;;2.14;79.10;97430.34;5057702;28;20192;-72
2021/12/07 00:03:11;;;;;;;2.77;2.50;;;;;;;2.12;78.58;97429.72;5057465;28;20666;-73
2021/12/07 00:05:38;;;;;;;3.20;2.63;;;;;;;2.07;78.85;97432.06;5057891;28;20499;-73
2021/12/07 00:08:05;;;;;;;3.40;3.00;;;;;;;2.10;78.50;97429.06;5057794;28;20204;-73
2021/12/07 00:10:31;;;;;;;4.10;2.90;;;;;;;2.14;78.15;97423.31;5057741;28;20197;-72
2021/12/07 00:12:58;;;;;;;3.03;2.60;;;;;;;2.13;78.10;97420.84;5057246;28;20235;-72
2021/12/07 00:15:25;;;;;;;4.10;2.97;;;;;;;2.12;78.69;97412.16;5057314;28;20247;-73
2021/12/07 00:17:54;;;;;;;3.00;2.70;;;;;;;2.11;77.92;97409.72;5058342;28;20209;-73
2021/12/07 00:20:22;;;;;;;2.93;2.63;;;;;;;2.20;77.26;97417.31;5057633;28;20284;-73
2021/12/07 00:22:56;;;;;;;3.57;2.80;;;;;;;2.24;77.93;97415.13;5057499;28;20217;-73
2021/12/07 00:25:24;;;;;;;17.13;3.23;;;;;;;2.31;76.71;97410.81;5057000;28;20508;-72
2021/12/07 00:27:52;;;;;;;3.90;2.30;;;;;;;2.28;76.69;97411.97;5057387;28;20367;-73
2021/12/07 00:30:18;;;;;;;3.53;2.73;;;;;;;2.18;77.76;97416.69;5056628;28;20597;-73
2021/12/07 00:32:50;;;;;;;2.90;2.60;;;;;;;2.19;78.60;97404.38;5056969;28;20237;-72
2021/12/07 00:35:33;;;;;;;3.43;3.13;;;;;;;2.28;77.65;97403.28;5057254;28;20225;-73
2021/12/07 00:38:09;;;;;;;3.33;2.67;;;;;;;2.23;78.13;97416.13;5057285;28;20194;-72
2021/12/07 00:40:36;;;;;;;3.13;2.83;;;;;;;2.22;78.85;97409.28;5056899;28;20189;-73
2021/12/07 00:43:03;;;;;;;3.23;2.70;;;;;;;2.24;78.41;97423.00;5057021;28;20185;-72
2021/12/07 00:45:32;;;;;;;2.90;2.70;;;;;;;2.24;79.40;97423.00;5057616;28;20512;-73
2021/12/07 00:47:59;;;;;;;3.53;2.77;;;;;;;2.21;79.46;97423.38;5056931;28;20201;-73
2021/12/07 00:50:27;;;;;;;3.13;2.83;;;;;;;2.17;80.35;97425.53;5056993;28;20189;-73
2021/12/07 00:52:54;;;;;;;2.97;2.73;;;;;;;2.03;83.03;97426.34;5056597;28;20603;-73
2021/12/07 00:55:26;;;;;;;3.50;3.20;;;;;;;1.89;85.50;97418.50;5056599;28;20192;-72
2021/12/07 00:57:56;;;;;;;3.87;3.23;;;;;;;1.91;86.11;97414.72;5056528;28;20623;-73
2021/12/07 01:00:25;;;;;;;3.80;3.50;;;;;;;1.71;88.37;97418.03;5056793;28;20194;-73
2021/12/07 01:02:53;;;;;;;5.03;3.53;;;;;;;1.70;88.87;97408.53;5056445;28;20608;-73
2021/12/07 01:05:27;;;;;;;3.53;3.23;;;;;;;1.65;90.00;97410.88;5056708;28;20242;-73
2021/12/07 01:08:12;;;;;;;3.60;3.30;;;;;;;1.68;89.59;97400.06;5056642;28;20198;-73
2021/12/07 01:27:03;;;;;;;4.07;3.10;;;;;;;1.74;91.46;97404.56;5056491;28;20215;-73
2021/12/07 01:29:30;;;;;;;3.97;3.50;;;;;;;1.83;91.07;97390.38;5056320;28;20190;-73
2021/12/07 01:32:08;;;;;;;3.30;3.00;;;;;;;1.81;90.75;97397.63;5056078;28;20596;-73
2021/12/07 01:35:10;;;;;;;3.73;3.30;;;;;;;1.83;91.31;97393.84;5056269;28;20232;-73
2021/12/07 01:37:49;;;;;;;3.80;3.30;;;;;;;1.84;90.36;97395.44;5055840;28;20300;-73
2021/12/07 01:46:10;;;;;;;3.90;3.07;;;;;;;1.87;89.49;97407.38;5060389;28;20203;-73
2021/12/07 01:51:48;;;;;;;2.97;2.67;;;;;;;1.95;89.66;97420.41;5060416;28;20177;-73
2021/12/07 02:00:18;;;;;;;2.60;2.40;;;;;;;2.06;90.47;97418.13;4999244;28;20191;-73
2021/12/07 02:02:44;;;;;;;2.57;2.37;;;;;;;2.00;90.80;97420.66;4998635;28;20290;-73
2021/12/07 02:05:11;;;;;;;3.03;2.53;;;;;;;1.86;92.10;97418.88;5029952;28;20232;-73
2021/12/07 02:07:38;;;;;;;2.80;2.50;;;;;;;1.77;93.81;97426.00;5059989;28;20201;-73
2021/12/07 02:10:11;;;;;;;3.23;2.60;;;;;;;1.72;94.55;97415.22;5060406;28;20186;-73
2021/12/07 02:12:43;;;;;;;2.93;2.73;;;;;;;1.67;96.15;97409.72;5059502;28;20219;-73
2021/12/07 02:15:13;;;;;;;3.07;2.70;;;;;;;1.70;96.60;97419.84;5059786;28;20249;-73
2021/12/07 02:17:40;;;;;;;2.93;2.70;;;;;;;1.71;96.20;97424.06;5059897;28;20193;-73
2021/12/07 02:20:08;;;;;;;3.80;3.23;;;;;;;1.70;97.00;97421.63;5059771;28;20193;-73
2021/12/07 02:22:35;;;;;;;3.63;3.33;;;;;;;1.74;97.19;97415.88;5059749;28;20189;-73
2021/12/07 02:25:02;;;;;;;3.27;2.97;;;;;;;1.78;96.96;97418.94;5059272;28;20521;-73
2021/12/07 02:27:29;;;;;;;2.80;2.60;;;;;;;1.84;96.34;97420.81;5059678;28;20185;-73
2021/12/07 02:29:55;;;;;;;2.80;2.60;;;;;;;1.86;96.07;97430.16;5059608;28;20194;-73
2021/12/07 02:32:21;;;;;;;4.17;3.00;;;;;;;1.98;95.28;97420.06;5059576;28;20200;-73
2021/12/07 02:34:57;;;;;;;2.60;2.40;;;;;;;2.04;95.53;97419.31;5059174;28;20227;-73
2021/12/07 02:37:27;;;;;;;2.80;2.50;;;;;;;2.05;95.86;97423.56;5059407;28;20219;-73
2021/12/07 02:39:54;;;;;;;2.37;2.17;;;;;;;2.11;94.76;97415.78;5059350;28;20193;-73
2021/12/07 02:42:22;;;;;;;2.40;2.20;;;;;;;2.10;95.01;97421.19;5059333;28;20197;-73
2021/12/07 02:44:48;;;;;;;2.27;2.07;;;;;;;2.11;95.68;97433.31;5059238;28;20233;-73
2021/12/07 02:47:15;;;;;;;2.60;2.40;;;;;;;2.12;95.86;97437.59;5059306;28;20190;-73
2021/12/07 02:49:42;;;;;;;2.13;1.93;;;;;;;2.14;95.95;97438.22;5059370;28;20554;-73
2021/12/07 02:52:09;;;;;;;1.73;1.60;;;;;;;2.20;95.64;97435.66;5059308;28;20208;-73
2021/12/07 02:54:39;;;;;;;2.10;1.90;;;;;;;2.16;96.02;97444.09;5058016;28;20274;-73
2021/12/07 02:57:06;;;;;;;2.70;2.50;;;;;;;2.10;98.60;97445.63;5059174;28;20193;-73
2021/12/07 02:59:33;;;;;;;2.30;1.90;;;;;;;2.16;97.23;97458.00;5058862;28;20189;-73
2021/12/07 03:02:03;;;;;;;1.90;1.80;;;;;;;2.20;96.83;97456.66;5058843;28;20596;-73
2021/12/07 03:04:34;;;;;;;2.37;2.17;;;;;;;2.22;97.09;97462.50;5058705;28;20217;-73
2021/12/07 03:07:09;;;;;;;2.00;1.90;;;;;;;2.26;97.95;97463.78;5059015;28;20186;-73
2021/12/07 03:26:10;;;;;;;1.60;1.50;;;;;;;2.30;98.70;97478.16;5093761;28;20212;-72
2021/12/07 03:28:58;;;;;;;1.70;1.60;;;;;;;2.30;98.78;97485.22;5094024;28;20189;-72
2021/12/07 03:31:26;;;;;;;1.83;1.73;;;;;;;2.27;99.35;97482.97;5093828;28;20542;-73
2021/12/07 03:33:54;;;;;;;1.73;1.50;;;;;;;2.29;99.65;97476.53;5093444;28;20590;-73
2021/12/07 03:36:22;;;;;;;1.70;1.50;;;;;;;2.21;100.00;97476.63;5093835;28;20193;-73
2021/12/07 03:38:48;;;;;;;2.30;1.70;;;;;;;2.19;100.00;97478.63;5093706;28;20202;-73
2021/12/07 03:41:15;;;;;;;2.10;1.90;;;;;;;2.21;100.00;97475.84;5093643;28;20192;-73
2021/12/07 03:43:43;;;;;;;1.97;1.43;;;;;;;2.12;100.00;97482.16;5093544;28;20228;-73
2021/12/07 03:46:10;;;;;;;2.10;1.83;;;;;;;2.10;100.00;97479.72;5093628;28;20188;-73
2021/12/07 03:48:37;;;;;;;1.50;1.33;;;;;;;2.15;100.00;97479.16;5093571;28;20220;-73
2021/12/07 03:51:04;;;;;;;2.50;1.90;;;;;;;2.11;100.00;97483.94;5093143;28;20208;-73
2021/12/07 03:53:31;;;;;;;2.17;1.80;;;;;;;2.10;100.00;97492.00;5093065;28;20533;-73
2021/12/07 03:55:59;;;;;;;2.17;1.60;;;;;;;2.09;100.00;97498.22;5093325;28;20204;-72
2021/12/07 03:58:26;;;;;;;2.13;1.80;;;;;;;2.09;99.92;97493.00;5092972;28;20204;-73
2021/12/07 04:00:52;;;;;;;1.97;1.67;;;;;;;2.14;99.86;97501.97;5093224;28;20184;-73
2021/12/07 04:03:21;;;;;;;2.23;1.73;;;;;;;2.19;99.67;97507.47;5092992;28;20224;-73
2021/12/07 04:05:53;;;;;;;1.77;1.60;;;;;;;2.25;99.44;97508.56;5092855;28;20584;-73
2021/12/07 04:08:23;;;;;;;4.77;1.30;;;;;;;2.27;99.61;97511.81;5093169;28;20279;-73
2021/12/07 04:10:50;;;;;;;1.83;1.20;;;;;;;2.33;99.27;97508.44;5092646;28;20721;-73
2021/12/07 04:13:16;;;;;;;1.83;1.20;;;;;;;2.34;99.55;97510.91;5092936;28;20222;-73
2021/12/07 04:15:43;;;;;;;1.40;1.30;;;;;;;2.37;99.39;97518.41;5092967;28;20193;-73
2021/12/07 04:18:10;;;;;;;2.83;1.23;;;;;;;2.41;99.14;97518.88;5092421;28;20552;-72
2021/12/07 04:20:37;;;;;;;1.87;1.13;;;;;;;2.47;98.94;97524.19;5092842;28;20203;-73
2021/12/07 04:23:05;;;;;;;1.40;1.30;;;;;;;2.46;98.95;97527.00;5083316;28;20204;-73
2021/12/07 04:25:32;;;;;;;2.13;1.10;;;;;;;2.49;98.99;97537.16;5079387;28;20199;-73
2021/12/07 04:28:00;;;;;;;2.37;1.17;;;;;;;2.54;98.54;97540.03;5079337;28;20200;-73
2021/12/07 04:30:36;;;;;;;1.30;1.13;;;;;;;2.51;98.72;97543.84;5079122;28;20230;-73
2021/12/07 04:33:06;;;;;;;1.20;1.10;;;;;;;2.48;99.17;97551.25;5078690;28;20205;-73
2021/12/07 04:35:34;;;;;;;2.50;1.30;;;;;;;2.47;100.00;97553.06;5079000;28;20200;-72
2021/12/07 04:38:01;;;;;;;2.60;1.87;;;;;;;2.45;100.00;97547.19;5078825;28;20207;-72
2021/12/07 04:40:31;;;;;;;2.87;1.90;;;;;;;2.43;100.00;97545.75;5078875;28;20201;-72
2021/12/07 04:42:59;;;;;;;2.57;1.60;;;;;;;2.43;100.00;97553.63;5078749;28;20193;-73
2021/12/07 04:45:34;;;;;;;1.63;1.30;;;;;;;2.44;100.00;97547.38;5078496;28;20653;-73
2021/12/07 04:48:24;;;;;;;1.50;1.40;;;;;;;2.45;100.00;97551.63;5078740;28;20192;-73
2021/12/07 04:59:12;;;;;;;2.17;1.53;;;;;;;2.39;100.00;97589.06;5078437;28;20176;-73
2021/12/07 05:01:39;;;;;;;1.87;1.30;;;;;;;2.29;100.00;97583.25;5078394;28;20189;-73
2021/12/07 05:04:11;;;;;;;1.40;1.30;;;;;;;2.31;100.00;97582.06;5078197;28;20221;-72
2021/12/07 05:06:44;;;;;;;4.13;1.40;;;;;;;2.26;100.00;97594.91;5078014;28;20527;-72
2021/12/07 05:09:28;;;;;;;5.83;1.57;;;;;;;2.19;100.00;97587.94;5078396;28;20188;-73
2021/12/07 05:12:04;;;;;;;2.93;1.20;;;;;;;2.19;100.00;97583.50;5078256;28;20335;-72
2021/12/07 05:14:33;;;;;;;2.43;1.20;;;;;;;2.18;100.00;97587.13;5078200;28;20228;-73
2021/12/07 05:17:16;;;;;;;2.73;1.20;;;;;;;2.18;100.00;97586.31;5078166;28;20243;-73
2021/12/07 05:25:38;;;;;;;1.60;1.37;;;;;;;2.00;100.00;97596.28;5077447;28;20652;-73
2021/12/07 05:39:00;;;;;;;2.53;1.40;;;;;;;1.67;100.00;97618.50;5077651;28;20180;-73
2021/12/07 05:41:27;;;;;;;5.00;1.80;;;;;;;1.86;100.00;97618.88;5077333;28;20576;-73
2021/12/07 05:43:53;;;;;;;5.87;1.77;;;;;;;2.19;100.00;97620.22;5077273;28;20231;-73
2021/12/07 05:46:20;;;;;;;4.30;1.57;;;;;;;2.35;98.51;97624.50;5077343;28;20196;-73
2021/12/07 05:48:46;;;;;;;3.30;1.87;;;;;;;2.35;99.12;97627.13;5077014;28;20184;-73
2021/12/07 05:51:12;;;;;;;4.70;1.73;;;;;;;2.42;97.44;97625.41;5076922;28;20631;-73
2021/12/07 05:53:39;;;;;;;2.80;1.40;;;;;;;2.34;99.65;97625.50;5077211;28;20224;-73
2021/12/07 05:56:06;;;;;;;4.23;1.70;;;;;;;2.51;97.08;97633.03;5077386;28;20197;-73
2021/12/07 05:58:32;;;;;;;5.10;1.50;;;;;;;2.57;97.26;97628.91;5077781;28;20199;-73
2021/12/07 06:00:58;;;;;;;5.57;1.30;;;;;;;2.60;96.69;97639.00;5076709;28;20484;-73
2021/12/07 06:03:26;;;;;;;6.03;1.47;;;;;;;2.67;96.02;97645.97;5077034;28;20256;-68
2021/12/07 06:05:54;;;;;;;4.87;1.57;;;;;;;2.69;98.02;97649.25;5076907;28;20185;-68
2021/12/07 06:08:22;;;;;;;5.13;1.50;;;;;;;2.74;96.82;97653.94;5076672;28;20200;-68
2021/12/07 06:10:49;;;;;;;3.57;1.43;;;;;;;2.72;97.18;97661.22;5076242;28;20208;-68
2021/12/07 06:13:16;;;;;;;2.40;1.07;;;;;;;2.77;96.75;97656.22;5076462;28;20234;-68
2021/12/07 06:15:44;;;;;;;4.23;1.23;;;;;;;2.85;95.71;97658.78;5076698;28;20200;-68
2021/12/07 06:18:11;;;;;;;3.90;1.70;;;;;;;2.86;94.53;97660.41;5076549;28;20226;-68
2021/12/07 06:20:40;;;;;;;4.87;1.37;;;;;;;2.89;93.97;97658.22;5076392;28;20185;-67
2021/12/07 06:23:07;;;;;;;2.53;1.17;;;;;;;2.93;93.68;97671.81;5076339;28;20205;-68
2021/12/07 06:25:33;;;;;;;4.80;1.40;;;;;;;2.85;96.84;97664.81;5076413;28;20219;-68
2021/12/07 06:28:00;;;;;;;2.30;1.10;;;;;;;2.91;93.95;97664.13;5076509;28;20310;-68
2021/12/07 06:30:26;;;;;;;3.77;1.50;;;;;;;3.04;92.16;97664.31;5076400;28;20201;-68
2021/12/07 06:32:52;;;;;;;2.17;1.37;;;;;;;3.09;91.79;97679.50;5076018;28;20227;-68
2021/12/07 06:35:19;;;;;;;2.93;1.20;;;;;;;3.03;93.61;97683.66;5075799;28;20228;-68
2021/12/07 06:37:45;;;;;;;2.50;1.40;;;;;;;3.14;91.32;97687.66;5076114;28;20207;-68
2021/12/07 06:40:12;;;;;;;4.83;1.20;;;;;;;3.08;93.92;97685.75;5076289;28;20209;-68
2021/12/07 06:42:40;;;;;;;6.17;1.90;;;;;;;3.17;91.94;97679.44;5076134;28;20196;-68
2021/12/07 06:45:11;;;;;;;4.70;1.60;;;;;;;3.14;91.15;97685.84;5075576;28;20315;-68
2021/12/07 06:47:38;;;;;;;6.77;1.80;;;;;;;3.09;92.36;97692.63;5076223;28;20201;-68
2021/12/07 06:50:07;;;;;;;4.53;1.40;;;;;;;3.09;93.09;97698.72;5076189;28;20197;-68
2021/12/07 06:52:33;;;;;;;5.90;1.50;;;;;;;3.06;95.12;97693.00;5075839;28;20253;-69
2021/12/07 06:54:59;;;;;;;5.43;1.57;;;;;;;3.02;94.67;97705.66;5076200;28;20220;-68
2021/12/07 06:57:27;;;;;;;4.63;1.47;;;;;;;3.08;93.09;97706.78;5075675;28;20214;-68
2021/12/07 06:59:53;;;;;;;3.83;1.60;;;;;;;3.05;94.33;97713.19;5076152;28;20207;-68
2021/12/07 07:02:20;;;;;;;3.33;1.50;;;;;;;3.04;94.75;97722.06;5076135;28;20201;-68
2021/12/07 07:04:47;;;;;;;4.83;1.83;;;;;;;3.18;91.58;97721.28;5076157;28;20217;-68
2021/12/07 07:07:16;;;;;;;8.73;1.80;;;;;;;3.27;90.63;97730.69;5075977;28;20200;-68
2021/12/07 07:09:42;;;;;;;7.13;2.00;;;;;;;3.23;94.00;97744.34;5075999;28;20299;-68
2021/12/07 07:12:09;;;;;;;1.97;1.60;;;;;;;3.17;93.86;97745.09;5075436;28;20227;-68
2021/12/07 07:14:35;;;;;;;7.33;2.00;;;;;;;3.07;97.62;97734.03;5075558;28;20650;-68
2021/12/07 07:17:02;;;;;;;6.47;2.50;;;;;;;3.06;97.69;97735.81;5076023;28;20192;-69
2021/12/07 07:19:28;;;;;;;3.50;2.50;;;;;;;2.99;99.73;97744.59;5075977;28;20193;-68
2021/12/07 07:21:54;;;;;;;7.37;2.17;;;;;;;2.96;100.00;97755.47;5075923;28;20188;-68
2021/12/07 07:24:21;;;;;;;8.67;2.30;;;;;;;2.92;100.00;97748.94;5075861;28;20244;-68
2021/12/07 07:26:47;;;;;;;7.57;2.00;;;;;;;2.92;99.05;97759.44;5075820;28;20506;-68
2021/12/07 07:29:13;;;;;;;7.13;1.67;;;;;;;2.94;97.73;97749.59;5075631;28;20231;-68
2021/12/07 07:31:41;;;;;;;6.27;2.07;;;;;;;3.01;97.72;97750.47;5074991;28;20630;-67
2021/12/07 07:34:07;;;;;;;7.23;2.20;;;;;;;3.00;96.68;97749.69;5075825;28;20220;-68
2021/12/07 07:36:34;;;;;;;3.87;1.70;;;;;;;2.97;97.75;97754.47;5068215;28;20193;-68
2021/12/07 07:39:00;;;;;;;6.63;1.53;;;;;;;2.96;96.72;97745.78;5075472;28;20204;-68
2021/12/07 07:41:27;;;;;;;5.70;1.70;;;;;;;2.94;96.85;97750.38;5075698;28;20188;-68
2021/12/07 07:43:53;;;;;;;4.43;1.67;;;;;;;2.96;96.61;97744.97;5075555;28;20225;-68
2021/12/07 07:46:19;;;;;;;5.23;1.60;;;;;;;2.92;96.68;97751.56;5075336;28;20503;-68
2021/12/07 07:48:46;;;;;;;6.57;1.70;;;;;;;2.97;94.35;97751.84;5075428;28;20196;-68
2021/12/07 07:51:13;;;;;;;3.27;1.37;;;;;;;2.94;96.95;97752.22;5075935;28;20189;-69
2021/12/07 07:53:40;;;;;;;5.47;2.17;;;;;;;2.96;94.56;97752.84;5075403;28;20217;-69
2021/12/07 07:56:06;;;;;;;4.53;2.00;;;;;;;3.09;92.41;97758.28;5075108;28;20201;-69
2021/12/07 07:58:33;;;;;;;5.60;1.80;;;;;;;3.11;94.79;97765.00;5078397;28;20207;-69
2021/12/07 08:01:01;;;;;;;7.83;2.27;;;;;;;3.06;94.02;97762.09;5079160;28;20205;-69
2021/12/07 08:03:27;;;;;;;5.20;1.87;;;;;;;3.04;94.78;97763.25;5079713;28;20231;-69
2021/12/07 08:05:54;;;;;;;6.30;1.90;;;;;;;3.13;92.86;97775.31;5079091;28;20197;-69
2021/12/07 08:08:20;;;;;;;5.80;2.13;;;;;;;3.13;93.79;97772.69;5079153;28;20211;-69
2021/12/07 08:10:48;;;;;;;8.07;1.87;;;;;;;3.25;92.84;97773.91;5078695;28;20212;-69
2021/12/07 08:13:14;;;;;;;5.60;1.50;;;;;;;3.33;91.43;97779.03;5078958;28;20224;-69
2021/12/07 08:15:44;;;;;;;4.83;1.53;;;;;;;3.42;92.63;97783.22;5079095;28;20258;-69
2021/12/07 08:18:12;;;;;;;5.73;1.60;;;;;;;3.58;87.15;97790.94;5079063;28;20236;-69
2021/12/07 08:20:39;;;;;;;7.83;2.10;;;;;;;3.60;87.64;97792.38;5079734;28;20243;-69
2021/12/07 08:23:06;;;;;;;3.60;1.50;;;;;;;3.54;92.17;97792.28;5078457;28;20208;-68
2021/12/07 08:25:38;;;;;;;4.80;1.47;;;;;;;3.57;90.10;97797.19;5078824;28;20211;-69
2021/12/07 08:28:07;;;;;;;4.70;1.60;;;;;;;3.61;88.64;97782.69;5078372;28;20196;-69
2021/12/07 08:30:34;;;;;;;4.83;1.40;;;;;;;3.75;86.55;97781.88;5078811;28;20473;-70
2021/12/07 08:33:01;;;;;;;4.97;1.70;;;;;;;3.81;85.90;97781.13;5078380;28;20614;-69
2021/12/07 08:35:27;;;;;;;5.00;1.50;;;;;;;3.79;85.28;97780.50;5078711;28;20296;-69
2021/12/07 08:37:54;;;;;;;3.53;1.53;;;;;;;3.83;83.74;97787.00;5078585;28;20201;-69
2021/12/07 08:40:25;;;;;;;5.30;1.50;;;;;;;3.86;83.22;97787.47;5078388;28;20599;-69
2021/12/07 08:42:52;;;;;;;3.60;1.40;;;;;;;3.86;84.99;97786.66;5078776;28;20189;-68
2021/12/07 08:45:20;;;;;;;6.37;1.50;;;;;;;3.86;85.28;97792.75;5078088;28;20224;-68
2021/12/07 08:47:47;;;;;;;3.43;1.37;;;;;;;3.88;85.81;97792.56;5078228;28;20209;-69
2021/12/07 08:50:24;;;;;;;3.17;1.10;;;;;;;3.96;82.68;97798.53;5078582;28;20212;-69
2021/12/07 08:52:53;;;;;;;7.37;1.80;;;;;;;3.97;82.99;97804.63;5078561;28;20212;-69
2021/12/07 09:00:52;;;;;;;7.10;1.50;;;;;;;4.10;81.07;97802.13;5021787;28;20607;-69
2021/12/07 09:03:18;;;;;;;8.17;1.70;;;;;;;4.04;81.40;97801.06;5078200;28;20221;-70
2021/12/07 09:05:45;;;;;;;6.93;1.67;;;;;;;4.05;82.13;97799.22;5078165;28;20208;-70
2021/12/07 09:08:11;;;;;;;4.67;1.67;;;;;;;4.06;81.76;97808.72;5077817;28;20207;-69
2021/12/07 09:10:38;;;;;;;6.73;1.67;;;;;;;4.05;81.77;97809.75;5077906;28;20220;-70
2021/12/07 09:13:04;;;;;;;7.50;1.60;;;;;;;4.01;82.05;97819.81;5078064;28;20223;-69
2021/12/07 09:15:30;;;;;;;8.00;1.70;;;;;;;4.07;83.11;97826.19;5078125;28;20201;-69
2021/12/07 09:17:57;;;;;;;7.23;1.50;;;;;;;4.03;82.84;97819.66;5078144;28;20192;-69
2021/12/07 09:20:23;;;;;;;4.93;1.40;;;;;;;4.03;82.41;97815.19;5077760;28;20287;-69
2021/12/07 09:22:50;;;;;;;3.07;1.30;;;;;;;3.92;82.25;97812.22;5077696;28;20599;-69
2021/12/07 09:25:18;;;;;;;4.90;1.30;;;;;;;3.97;80.58;97812.50;5077940;28;20247;-68
2021/12/07 09:27:44;;;;;;;4.30;1.30;;;;;;;3.91;83.65;97823.72;5077497;28;20211;-68
2021/12/07 09:30:15;;;;;;;6.97;1.47;;;;;;;3.86;82.54;97821.66;5077451;28;20185;-69
2021/12/07 09:32:42;;;;;;;6.20;1.40;;;;;;;3.91;81.54;97827.19;5077455;28;20219;-69
2021/12/07 09:35:09;;;;;;;3.83;1.30;;;;;;;4.05;81.20;97822.91;5077716;28;20227;-70
2021/12/07 09:37:37;;;;;;;4.13;1.20;;;;;;;4.14;80.67;97824.41;5077513;28;20580;-73
2021/12/07 09:40:12;;;;;;;5.67;1.50;;;;;;;4.23;82.53;97823.31;5077736;28;20189;-73
2021/12/07 09:42:38;;;;;;;8.77;1.40;;;;;;;4.33;81.63;97829.91;5078493;28;20483;-74
2021/12/07 09:45:10;;;;;;;4.63;1.20;;;;;;;4.44;77.17;97831.25;5077274;28;20228;-73
2021/12/07 09:47:37;;;;;;;3.87;0.90;;;;;;;4.53;74.63;97827.50;5077455;28;20287;-73
2021/12/07 09:50:05;;;;;;;4.13;1.40;;;;;;;4.54;75.42;97837.03;5077400;28;20209;-73
2021/12/07 09:52:32;;;;;;;6.77;1.60;;;;;;;4.53;75.66;97812.53;5077203;28;20221;-73
2021/12/07 09:54:59;;;;;;;7.00;2.33;;;;;;;4.49;77.62;97815.72;5077186;28;20220;-73
2021/12/07 09:57:25;;;;;;;6.30;1.30;;;;;;;4.47;76.37;97830.91;5077442;28;20185;-73
2021/12/07 09:59:52;;;;;;;5.47;1.40;;;;;;;4.51;74.71;97829.50;5077117;28;20208;-73
2021/12/07 10:02:19;;;;;;;3.43;1.20;;;;;;;4.44;74.85;97828.63;5076868;28;20205;-73
2021/12/07 10:04:47;;;;;;;4.40;1.30;;;;;;;4.40;75.71;97827.38;5077066;28;20257;-73
2021/12/07 10:07:13;;;;;;;2.80;1.30;;;;;;;4.43;74.62;97829.63;5077517;28;20196;-73
2021/12/07 10:09:40;;;;;;;3.23;1.20;;;;;;;4.36;75.20;97826.94;5076969;28;20189;-73
2021/12/07 10:12:08;;;;;;;7.47;1.73;;;;;;;4.39;74.27;97838.91;5076359;28;20232;-73
2021/12/07 10:14:40;;;;;;;4.53;1.30;;;;;;;4.35;73.05;97829.75;5076526;28;20217;-73
2021/12/07 10:17:07;;;;;;;4.03;1.20;;;;;;;4.30;72.81;97821.59;5077384;28;20200;-73
2021/12/07 10:19:37;;;;;;;5.33;1.23;;;;;;;4.20;72.60;97821.88;5076365;28;20627;-74
2021/12/07 10:22:15;;;;;;;5.63;1.40;;;;;;;4.12;74.27;97821.97;5076385;28;20197;-73
2021/12/07 10:24:49;;;;;;;6.00;1.40;;;;;;;4.10;74.20;97820.53;5076556;28;20223;-73
2021/12/07 10:27:38;;;;;;;6.00;1.77;;;;;;;4.01;73.57;97808.47;5076431;28;20261;-73
2021/12/07 10:30:08;;;;;;;6.07;1.93;;;;;;;3.98;73.75;97800.97;5076128;28;20477;-73
2021/12/07 10:32:39;;;;;;;6.40;1.50;;;;;;;4.03;73.66;97811.75;5076693;28;20224;-72
2021/12/07 10:35:26;;;;;;;4.63;1.30;;;;;;;4.02;73.85;97800.41;5076234;28;20228;-73
2021/12/07 10:38:15;;;;;;;3.73;1.37;;;;;;;4.11;74.19;97798.50;5076173;28;20192;-73
2021/12/07 10:40:59;;;;;;;8.50;1.40;;;;;;;4.24;75.68;97799.47;5075811;28;20584;-73
2021/12/07 10:44:04;;;;;;;4.70;1.50;;;;;;;4.39;72.03;97802.06;5076056;28;20220;-74
2021/12/07 10:46:33;;;;;;;2.30;1.10;;;;;;;4.40;74.01;97796.63;5076069;28;20583;-73
2021/12/07 10:49:21;;;;;;;4.37;1.30;;;;;;;4.59;72.28;97784.63;5076398;28;20195;-74
2021/12/07 10:51:59;;;;;;;4.17;1.40;;;;;;;4.66;70.53;97790.78;5076497;28;20271;-73
2021/12/07 10:54:28;;;;;;;5.13;1.53;;;;;;;4.79;70.51;97788.28;5075967;28;20646;-74
2021/12/07 10:56:55;;;;;;;4.03;1.13;;;;;;;4.81;71.20;97787.09;5076414;28;20192;-73
2021/12/07 10:59:22;;;;;;;4.43;1.30;;;;;;;4.89;70.48;97776.41;5076352;28;20254;-73
2021/12/07 11:01:53;;;;;;;3.90;1.20;;;;;;;4.88;70.79;97766.09;5076123;28;20185;-73
2021/12/07 11:04:34;;;;;;;3.30;1.20;;;;;;;4.92;68.98;97764.66;5075561;28;20647;-73
2021/12/07 11:07:23;;;;;;;2.93;1.17;;;;;;;4.86;70.73;97757.53;5075799;28;20602;-73
2021/12/07 11:09:56;;;;;;;3.53;1.17;;;;;;;4.89;70.53;97749.28;5076084;28;20568;-74
2021/12/07 11:12:24;;;;;;;5.93;1.53;;;;;;;4.88;70.53;97752.91;5075663;28;20224;-73
2021/12/07 11:14:57;;;;;;;8.83;1.70;;;;;;;4.88;68.85;97753.72;5075726;28;20216;-73
2021/12/07 11:17:27;;;;;;;6.93;1.20;;;;;;;4.87;69.49;97761.78;5075985;28;20201;-73
2021/12/07 11:19:55;;;;;;;3.93;1.40;;;;;;;5.00;67.57;97761.91;5075815;28;20635;-72
2021/12/07 11:22:27;;;;;;;5.97;1.33;;;;;;;5.08;66.15;97743.31;5075810;28;20199;-74
2021/12/07 11:24:55;;;;;;;6.77;1.23;;;;;;;5.05;67.53;97756.88;5075621;28;20255;-73
2021/12/07 11:30:17;;;;;;;5.70;1.57;;;;;;;5.36;66.21;97742.31;5076075;28;20479;-72
2021/12/07 11:32:51;;;;;;;3.40;1.03;;;;;;;5.36;65.24;97744.94;5077079;28;20216;-72
2021/12/07 11:35:30;;;;;;;4.37;1.30;;;;;;;5.32;64.27;97741.06;5079577;28;20718;-72
2021/12/07 11:37:59;;;;;;;5.03;1.27;;;;;;;5.35;63.15;97729.31;5079683;28;20193;-72
2021/12/07 11:40:30;;;;;;;3.53;1.30;;;;;;;5.46;64.17;97724.31;5079964;28;20195;-72
2021/12/07 11:42:56;;;;;;;3.63;1.40;;;;;;;5.39;63.84;97731.34;5079915;28;20196;-72
2021/12/07 11:45:28;;;;;;;5.33;1.23;;;;;;;5.37;66.56;97733.38;5079578;28;20502;-73
2021/12/07 11:48:02;;;;;;;4.57;1.20;;;;;;;5.35;62.96;97735.41;5078993;28;20594;-72
2021/12/07 11:50:38;;;;;;;4.27;1.10;;;;;;;5.39;62.56;97735.84;5079495;28;20195;-72
2021/12/07 11:53:15;;;;;;;4.07;0.87;;;;;;;5.39;63.54;97730.56;5079184;28;20208;-73
2021/12/07 11:55:47;;;;;;;6.27;1.20;;;;;;;5.50;63.17;97727.38;5079133;28;20196;-72
2021/12/07 11:58:13;;;;;;;2.87;0.90;;;;;;;5.62;64.06;97729.28;5079299;28;20204;-72
2021/12/07 12:00:44;;;;;;;4.83;1.00;;;;;;;5.71;62.18;97722.84;5079222;28;20189;-72
2021/12/07 12:03:13;;;;;;;5.00;1.20;;;;;;;5.68;62.31;97727.66;5079255;28;20212;-72
2021/12/07 12:05:42;;;;;;;4.90;1.17;;;;;;;5.56;62.31;97706.31;5078768;28;20189;-72
2021/12/07 12:08:10;;;;;;;3.80;1.20;;;;;;;5.49;64.37;97713.38;5079033;28;20193;-72
2021/12/07 12:10:50;;;;;;;3.53;1.10;;;;;;;5.50;63.86;97704.47;5078782;28;20239;-72
2021/12/07 12:13:22;;;;;;;3.97;1.43;;;;;;;5.58;64.38;97700.84;5078991;28;20519;-72
2021/12/07 12:16:17;;;;;;;4.00;0.93;;;;;;;5.59;62.26;97703.28;5078946;28;20196;-72
2021/12/07 12:18:52;;;;;;;3.77;1.10;;;;;;;5.58;61.04;97693.75;5079209;28;20191;-72
2021/12/07 12:21:41;;;;;;;3.83;0.90;;;;;;;5.66;62.44;97682.22;5078801;28;20489;-72
2021/12/07 12:24:34;;;;;;;4.80;1.10;;;;;;;5.75;60.72;97675.78;5078972;28;20549;-73
2021/12/07 12:27:13;;;;;;;5.67;1.27;;;;;;;5.53;60.72;97674.25;5075740;28;20208;-73
2021/12/07 12:29:41;;;;;;;5.67;1.27;;;;;;;5.50;61.53;97674.63;5078513;28;20580;-73
2021/12/07 12:32:09;;;;;;;4.50;1.20;;;;;;;5.54;65.41;97668.78;5078651;28;20192;-73
2021/12/07 12:34:39;;;;;;;4.00;1.03;;;;;;;5.60;65.59;97659.25;5078525;28;20315;-72
2021/12/07 12:37:10;;;;;;;4.97;1.00;;;;;;;5.60;65.64;97660.09;5078689;28;20189;-73
2021/12/07 12:39:45;;;;;;;3.43;1.10;;;;;;;5.73;65.85;97656.69;5078559;28;20189;-72
2021/12/07 12:42:17;;;;;;;2.53;1.00;;;;;;;5.73;63.68;97654.03;5078291;28;20580;-73
2021/12/07 12:44:43;;;;;;;6.03;1.20;;;;;;;5.79;62.39;97637.44;5077925;28;20220;-73
2021/12/07 12:47:10;;;;;;;6.03;1.60;;;;;;;5.86;62.46;97648.84;5078465;28;20204;-73
2021/12/07 12:49:46;;;;;;;4.33;1.23;;;;;;;5.72;59.74;97645.34;5078422;28;20192;-73
2021/12/07 12:52:13;;;;;;;3.57;1.10;;;;;;;5.68;61.24;97640.63;5078203;28;20223;-72
2021/12/07 12:54:45;;;;;;;2.47;0.70;;;;;;;5.62;63.26;97641.44;5078526;28;20224;-72
2021/12/07 12:57:18;;;;;;;5.80;1.10;;;;;;;5.69;61.82;97651.00;5078199;28;20496;-73
2021/12/07 12:59:47;;;;;;;5.80;1.13;;;;;;;5.75;63.68;97650.19;5078484;28;20203;-72
2021/12/07 13:02:17;;;;;;;5.23;1.50;;;;;;;5.74;64.33;97639.88;5078186;28;20196;-73
2021/12/07 13:04:43;;;;;;;5.30;1.50;;;;;;;5.74;62.72;97648.56;5077908;28;20666;-73
2021/12/07 13:07:24;;;;;;;8.43;1.50;;;;;;;5.91;62.73;97649.06;5078079;28;20189;-72
2021/12/07 13:09:59;;;;;;;5.63;1.10;;;;;;;5.91;61.84;97641.97;5078368;28;20192;-72
2021/12/07 13:12:32;;;;;;;4.30;1.00;;;;;;;5.87;59.54;97646.00;5078205;28;20184;-72
2021/12/07 13:15:01;;;;;;;2.73;0.90;;;;;;;5.93;61.87;97650.47;5077944;28;20269;-72